Time,TemperatureF,DewpointF,PressureIn,WindDirection,WindDirectionDegrees,WindSpeedMPH,WindSpeedGustMPH,Humidity,HourlyPrecipIn,Conditions,Clouds,dailyrainin,SoftwareType,DateUTC
2013-03-15 00:00:00,18.1,14.9,30.23,WNW,283,1.0,2.0,87,0.00,,---,0.00,VWS V13.01,2013-03-15 04:00:00,
2013-03-15 00:03:00,18.0,14.8,30.23,WNW,283,1.0,2.0,87,0.00,,---,0.00,VWS V13.01,2013-03-15 04:03:00,
2013-03-15 00:08:00,17.8,14.6,30.22,WNW,283,0.0,2.0,87,0.00,,---,0.00,VWS V13.01,2013-03-15 04:08:00,
2013-03-15 00:13:00,17.6,14.4,30.22,WNW,283,4.0,4.0,87,0.00,,---,0.00,VWS V13.01,2013-03-15 04:13:00,
2013-03-15 00:18:00,17.4,14.5,30.22,WNW,283,2.0,4.0,88,0.00,,---,0.00,VWS V13.01,2013-03-15 04:18:00,
2013-03-15 00:23:00,17.3,14.4,30.22,WNW,283,0.0,4.0,88,0.00,,---,0.00,VWS V13.01,2013-03-15 04:23:00,
2013-03-15 00:29:00,17.1,14.2,30.22,WNW,283,1.0,4.0,88,0.00,,---,0.00,VWS V13.01,2013-03-15 04:29:00,
2013-03-15 00:34:00,16.8,13.9,30.22,WNW,283,0.0,1.0,88,0.00,,---,0.00,VWS V13.01,2013-03-15 04:34:00,
2013-03-15 00:39:00,16.7,13.8,30.21,WNW,283,0.0,2.0,88,0.00,,---,0.00,VWS V13.01,2013-03-15 04:39:00,
2013-03-15 00:44:00,16.6,13.9,30.22,WNW,283,0.0,2.0,89,0.00,,---,0.00,VWS V13.01,2013-03-15 04:44:00,
2013-03-15 00:49:00,16.6,13.9,30.22,WNW,283,0.0,2.0,89,0.00,,---,0.00,VWS V13.01,2013-03-15 04:49:00,
2013-03-15 00:54:00,16.6,13.9,30.22,WNW,283,0.0,2.0,89,0.00,,---,0.00,VWS V13.01,2013-03-15 04:54:00,
2013-03-15 00:59:00,16.6,13.9,30.22,WNW,283,0.0,2.0,89,0.00,,---,0.00,VWS V13.01,2013-03-15 04:59:00,
2013-03-15 01:05:00,16.6,13.9,30.22,WNW,283,0.0,0.0,89,0.00,,---,0.00,VWS V13.01,2013-03-15 05:05:00,
2013-03-15 01:10:00,16.6,13.9,30.22,WNW,283,0.0,0.0,89,0.00,,---,0.00,VWS V13.01,2013-03-15 05:10:00,
2013-03-15 01:15:00,16.4,14.0,30.22,WNW,283,0.0,2.0,90,0.00,,---,0.00,VWS V13.01,2013-03-15 05:15:00,
2013-03-15 01:20:00,16.3,13.9,30.22,WNW,283,0.0,2.0,90,0.00,,---,0.00,VWS V13.01,2013-03-15 05:20:00,
2013-03-15 01:25:00,16.2,13.8,30.22,WNW,283,0.0,2.0,90,0.00,,---,0.00,VWS V13.01,2013-03-15 05:25:00,
2013-03-15 01:31:00,16.1,13.7,30.22,WNW,283,0.0,0.0,90,0.00,,---,0.00,VWS V13.01,2013-03-15 05:31:00,
2013-03-15 01:36:00,16.1,13.7,30.22,WNW,283,0.0,0.0,90,0.00,,---,0.00,VWS V13.01,2013-03-15 05:36:00,
2013-03-15 01:41:00,16.1,13.7,30.22,WNW,283,0.0,0.0,90,0.00,,---,0.00,VWS V13.01,2013-03-15 05:41:00,
2013-03-15 01:46:00,16.0,13.6,30.22,WNW,283,0.0,0.0,90,0.00,,---,0.00,VWS V13.01,2013-03-15 05:46:00,
2013-03-15 01:51:00,15.9,13.7,30.22,WNW,283,0.0,0.0,91,0.00,,---,0.00,VWS V13.01,2013-03-15 05:51:00,
2013-03-15 01:57:00,15.7,13.3,30.22,WNW,283,0.0,1.0,90,0.00,,---,0.00,VWS V13.01,2013-03-15 05:57:00,
2013-03-15 02:02:00,15.7,13.5,30.21,WNW,283,0.0,0.0,91,0.00,,---,0.00,VWS V13.01,2013-03-15 06:02:00,
2013-03-15 02:07:00,15.7,13.5,30.21,WNW,283,0.0,0.0,91,0.00,,---,0.00,VWS V13.01,2013-03-15 06:07:00,
2013-03-15 02:12:00,15.7,13.5,30.21,WNW,283,0.0,0.0,91,0.00,,---,0.00,VWS V13.01,2013-03-15 06:12:00,
2013-03-15 02:17:00,15.8,13.6,30.21,WNW,283,0.0,0.0,91,0.00,,---,0.00,VWS V13.01,2013-03-15 06:17:00,
2013-03-15 02:23:00,15.8,13.6,30.21,WNW,283,0.0,0.0,91,0.00,,---,0.00,VWS V13.01,2013-03-15 06:23:00,
2013-03-15 02:28:00,15.9,13.7,30.20,WNW,283,0.0,0.0,91,0.00,,---,0.00,VWS V13.01,2013-03-15 06:28:00,
2013-03-15 02:33:00,15.8,13.6,30.20,WNW,283,0.0,0.0,91,0.00,,---,0.00,VWS V13.01,2013-03-15 06:33:00,
2013-03-15 02:38:00,15.7,13.5,30.20,WNW,283,0.0,0.0,91,0.00,,---,0.00,VWS V13.01,2013-03-15 06:38:00,
2013-03-15 02:44:00,15.7,13.5,30.20,WNW,283,0.0,0.0,91,0.00,,---,0.00,VWS V13.01,2013-03-15 06:44:00,
2013-03-15 02:49:00,15.7,13.5,30.19,WNW,283,0.0,0.0,91,0.00,,---,0.00,VWS V13.01,2013-03-15 06:49:00,
2013-03-15 02:54:00,15.6,13.4,30.19,WNW,283,0.0,0.0,91,0.00,,---,0.00,VWS V13.01,2013-03-15 06:54:00,
2013-03-15 02:59:00,15.6,13.7,30.19,WNW,283,0.0,0.0,92,0.00,,---,0.00,VWS V13.01,2013-03-15 06:59:00,
2013-03-15 03:04:00,15.7,13.8,30.18,WNW,283,0.0,0.0,92,0.00,,---,0.00,VWS V13.01,2013-03-15 07:04:00,
2013-03-15 03:09:00,15.7,13.8,30.18,WNW,283,0.0,0.0,92,0.00,,---,0.00,VWS V13.01,2013-03-15 07:09:00,
2013-03-15 03:15:00,15.7,13.8,30.18,WNW,283,0.0,0.0,92,0.00,,---,0.00,VWS V13.01,2013-03-15 07:15:00,
2013-03-15 03:20:00,15.7,13.8,30.18,WNW,283,0.0,0.0,92,0.00,,---,0.00,VWS V13.01,2013-03-15 07:20:00,
2013-03-15 03:25:00,15.7,13.8,30.18,WNW,283,0.0,0.0,92,0.00,,---,0.00,VWS V13.01,2013-03-15 07:25:00,
2013-03-15 03:30:00,15.7,13.8,30.18,WNW,283,0.0,0.0,92,0.00,,---,0.00,VWS V13.01,2013-03-15 07:30:00,
2013-03-15 03:35:00,15.9,14.0,30.17,WNW,283,0.0,0.0,92,0.00,,---,0.00,VWS V13.01,2013-03-15 07:35:00,
2013-03-15 03:40:00,15.9,14.0,30.17,WNW,283,0.0,0.0,92,0.00,,---,0.00,VWS V13.01,2013-03-15 07:40:00,
2013-03-15 03:46:00,16.0,14.1,30.17,WNW,283,0.0,0.0,92,0.00,,---,0.00,VWS V13.01,2013-03-15 07:46:00,
2013-03-15 03:51:00,15.9,14.0,30.16,WNW,283,0.0,0.0,92,0.00,,---,0.00,VWS V13.01,2013-03-15 07:51:00,
2013-03-15 03:57:00,15.9,14.0,30.15,WNW,283,0.0,0.0,92,0.00,,---,0.00,VWS V13.01,2013-03-15 07:57:00,
2013-03-15 04:02:00,15.9,14.0,30.14,WNW,283,0.0,0.0,92,0.00,,---,0.00,VWS V13.01,2013-03-15 08:02:00,
2013-03-15 04:07:00,15.9,14.0,30.14,WNW,283,0.0,0.0,92,0.00,,---,0.00,VWS V13.01,2013-03-15 08:07:00,
2013-03-15 04:12:00,16.0,14.1,30.14,WNW,283,0.0,0.0,92,0.00,,---,0.00,VWS V13.01,2013-03-15 08:12:00,
2013-03-15 04:18:00,16.2,14.3,30.13,WNW,283,0.0,0.0,92,0.00,,---,0.00,VWS V13.01,2013-03-15 08:18:00,
2013-03-15 04:23:00,16.4,14.5,30.13,WNW,283,0.0,0.0,92,0.00,,---,0.00,VWS V13.01,2013-03-15 08:23:00,
2013-03-15 04:29:00,16.5,14.6,30.13,WNW,283,0.0,0.0,92,0.00,,---,0.00,VWS V13.01,2013-03-15 08:29:00,
2013-03-15 04:34:00,16.7,14.8,30.13,WNW,283,0.0,0.0,92,0.00,,---,0.00,VWS V13.01,2013-03-15 08:34:00,
2013-03-15 04:39:00,16.8,14.9,30.12,WNW,283,0.0,0.0,92,0.00,,---,0.00,VWS V13.01,2013-03-15 08:39:00,
2013-03-15 04:44:00,16.9,15.0,30.12,WNW,283,0.0,0.0,92,0.00,,---,0.00,VWS V13.01,2013-03-15 08:44:00,
2013-03-15 04:49:00,16.9,15.0,30.12,WNW,283,0.0,0.0,92,0.00,,---,0.00,VWS V13.01,2013-03-15 08:49:00,
2013-03-15 04:55:00,17.1,15.2,30.12,WNW,283,0.0,0.0,92,0.00,,---,0.00,VWS V13.01,2013-03-15 08:55:00,
2013-03-15 05:00:00,17.2,15.3,30.12,WNW,283,0.0,0.0,92,0.00,,---,0.00,VWS V13.01,2013-03-15 09:00:00,
2013-03-15 05:05:00,17.4,15.5,30.12,WNW,283,0.0,0.0,92,0.00,,---,0.00,VWS V13.01,2013-03-15 09:05:00,
2013-03-15 05:10:00,17.6,15.7,30.12,WNW,283,0.0,0.0,92,0.00,,---,0.00,VWS V13.01,2013-03-15 09:10:00,
2013-03-15 05:16:00,17.7,15.8,30.12,WNW,283,0.0,0.0,92,0.00,,---,0.00,VWS V13.01,2013-03-15 09:16:00,
2013-03-15 05:22:00,17.8,15.9,30.12,WNW,283,0.0,0.0,92,0.00,,---,0.00,VWS V13.01,2013-03-15 09:22:00,
2013-03-15 05:27:00,17.9,16.0,30.12,WNW,283,0.0,0.0,92,0.00,,---,0.00,VWS V13.01,2013-03-15 09:27:00,
2013-03-15 05:32:00,18.0,16.1,30.12,WNW,283,0.0,0.0,92,0.00,,---,0.00,VWS V13.01,2013-03-15 09:32:00,
2013-03-15 05:37:00,18.1,16.2,30.12,WNW,283,0.0,0.0,92,0.00,,---,0.00,VWS V13.01,2013-03-15 09:37:00,
2013-03-15 05:42:00,18.2,16.3,30.11,WNW,283,0.0,0.0,92,0.00,,---,0.00,VWS V13.01,2013-03-15 09:42:00,
2013-03-15 05:47:00,18.3,16.4,30.10,WNW,283,0.0,0.0,92,0.00,,---,0.00,VWS V13.01,2013-03-15 09:47:00,
2013-03-15 05:53:00,18.4,16.5,30.10,WNW,283,0.0,0.0,92,0.00,,---,0.00,VWS V13.01,2013-03-15 09:53:00,
2013-03-15 05:58:00,18.5,16.6,30.10,WNW,283,0.0,0.0,92,0.00,,---,0.00,VWS V13.01,2013-03-15 09:58:00,
2013-03-15 06:03:00,18.6,16.7,30.10,WNW,283,0.0,0.0,92,0.00,,---,0.00,VWS V13.01,2013-03-15 10:03:00,
2013-03-15 06:08:00,18.6,16.7,30.10,WNW,283,0.0,0.0,92,0.00,,---,0.00,VWS V13.01,2013-03-15 10:08:00,
2013-03-15 06:14:00,18.7,16.8,30.10,WNW,283,0.0,0.0,92,0.00,,---,0.00,VWS V13.01,2013-03-15 10:14:00,
2013-03-15 06:19:00,18.8,16.9,30.10,WNW,283,0.0,0.0,92,0.00,,---,0.00,VWS V13.01,2013-03-15 10:19:00,
2013-03-15 06:24:00,18.9,17.0,30.10,WNW,283,0.0,1.0,92,0.00,,---,0.00,VWS V13.01,2013-03-15 10:24:00,
2013-03-15 06:29:00,19.0,17.1,30.10,WNW,283,0.0,1.0,92,0.00,,---,0.00,VWS V13.01,2013-03-15 10:29:00,
2013-03-15 06:35:00,19.0,17.1,30.10,WNW,283,0.0,0.0,92,0.00,,---,0.00,VWS V13.01,2013-03-15 10:35:00,
2013-03-15 06:40:00,19.1,17.2,30.09,WNW,283,0.0,0.0,92,0.00,,---,0.00,VWS V13.01,2013-03-15 10:40:00,
2013-03-15 06:45:00,19.3,17.4,30.10,WNW,283,0.0,0.0,92,0.00,,---,0.00,VWS V13.01,2013-03-15 10:45:00,
2013-03-15 06:51:00,19.6,17.7,30.09,WNW,283,0.0,0.0,92,0.00,,---,0.00,VWS V13.01,2013-03-15 10:51:00,
2013-03-15 06:56:00,19.7,17.8,30.08,WNW,283,0.0,0.0,92,0.00,,---,0.00,VWS V13.01,2013-03-15 10:56:00,
2013-03-15 07:01:00,19.9,18.0,30.08,WNW,283,0.0,0.0,92,0.00,,---,0.00,VWS V13.01,2013-03-15 11:01:00,
2013-03-15 07:06:00,20.1,18.1,30.08,WNW,283,0.0,1.0,92,0.00,,---,0.00,VWS V13.01,2013-03-15 11:06:00,
2013-03-15 07:11:00,20.3,18.4,30.08,WNW,283,0.0,1.0,92,0.00,,---,0.00,VWS V13.01,2013-03-15 11:11:00,
2013-03-15 07:16:00,20.4,18.5,30.08,WNW,283,0.0,1.0,92,0.00,,---,0.00,VWS V13.01,2013-03-15 11:16:00,
2013-03-15 07:21:00,20.7,18.8,30.07,WNW,283,0.0,1.0,92,0.00,,---,0.00,VWS V13.01,2013-03-15 11:21:00,
2013-03-15 07:27:00,20.9,19.0,30.07,WNW,283,0.0,1.0,92,0.00,,---,0.00,VWS V13.01,2013-03-15 11:27:00,
2013-03-15 07:32:00,21.1,19.1,30.07,WNW,283,0.0,0.0,92,0.00,,---,0.00,VWS V13.01,2013-03-15 11:32:00,
2013-03-15 07:37:00,21.2,19.2,30.07,WNW,283,0.0,1.0,92,0.00,,---,0.00,VWS V13.01,2013-03-15 11:37:00,
2013-03-15 07:43:00,21.5,19.5,30.07,WNW,283,0.0,1.0,92,0.00,,---,0.00,VWS V13.01,2013-03-15 11:43:00,
2013-03-15 07:48:00,21.8,19.8,30.07,WNW,283,0.0,1.0,92,0.00,,---,0.00,VWS V13.01,2013-03-15 11:48:00,
2013-03-15 07:53:00,22.1,20.1,30.07,WNW,283,0.0,1.0,92,0.00,,---,0.00,VWS V13.01,2013-03-15 11:53:00,
2013-03-15 07:58:00,22.8,20.8,30.06,WNW,283,0.0,1.0,92,0.00,,---,0.00,VWS V13.01,2013-03-15 11:58:00,
2013-03-15 08:04:00,23.5,21.5,30.06,WNW,283,0.0,0.0,92,0.00,,---,0.00,VWS V13.01,2013-03-15 12:04:00,
2013-03-15 08:09:00,24.5,22.5,30.06,West,261,5.0,8.0,92,0.00,,---,0.00,VWS V13.01,2013-03-15 12:09:00,
2013-03-15 08:14:00,25.9,23.1,30.05,West,263,1.0,8.0,89,0.00,,---,0.00,VWS V13.01,2013-03-15 12:14:00,
2013-03-15 08:19:00,26.5,23.2,30.05,West,263,2.0,8.0,87,0.00,,---,0.00,VWS V13.01,2013-03-15 12:19:00,
2013-03-15 08:24:00,27.0,23.1,30.05,West,267,5.0,8.0,85,0.00,,---,0.00,VWS V13.01,2013-03-15 12:24:00,
2013-03-15 08:30:00,27.4,23.2,30.05,West,275,9.0,10.0,84,0.00,,---,0.00,VWS V13.01,2013-03-15 12:30:00,
2013-03-15 08:35:00,27.7,23.2,30.04,West,276,8.0,12.0,83,0.00,,---,0.00,VWS V13.01,2013-03-15 12:35:00,
2013-03-15 08:40:00,27.9,23.1,30.04,West,273,5.0,13.0,82,0.00,,---,0.00,VWS V13.01,2013-03-15 12:40:00,
2013-03-15 08:45:00,28.1,23.3,30.04,West,277,10.0,15.0,82,0.00,,---,0.00,VWS V13.01,2013-03-15 12:45:00,
2013-03-15 08:50:00,28.3,23.2,30.04,WNW,285,5.0,15.0,81,0.00,,---,0.00,VWS V13.01,2013-03-15 12:50:00,
2013-03-15 08:55:00,28.2,23.1,30.04,West,265,6.0,15.0,81,0.00,,---,0.00,VWS V13.01,2013-03-15 12:55:00,
2013-03-15 09:01:00,28.4,23.3,30.04,WNW,303,7.0,10.0,81,0.00,,---,0.00,VWS V13.01,2013-03-15 13:01:00,
2013-03-15 09:07:00,28.3,23.2,30.03,West,271,6.0,10.0,81,0.00,,---,0.00,VWS V13.01,2013-03-15 13:07:00,
2013-03-15 09:12:00,28.6,23.5,30.03,WSW,257,8.0,11.0,81,0.00,,---,0.00,VWS V13.01,2013-03-15 13:12:00,
2013-03-15 09:17:00,28.8,23.7,30.03,WNW,285,9.0,11.0,81,0.00,,---,0.00,VWS V13.01,2013-03-15 13:17:00,
2013-03-15 09:22:00,28.9,23.8,30.03,West,261,8.0,13.0,81,0.00,,---,0.00,VWS V13.01,2013-03-15 13:22:00,
2013-03-15 09:28:00,29.2,23.8,30.03,WNW,287,12.0,15.0,80,0.00,,---,0.00,VWS V13.01,2013-03-15 13:28:00,
2013-03-15 09:33:00,29.5,24.1,30.02,West,271,6.0,14.0,80,0.00,,---,0.00,VWS V13.01,2013-03-15 13:33:00,
2013-03-15 09:38:00,29.7,24.6,30.02,WSW,251,8.0,14.0,81,0.00,,---,0.00,VWS V13.01,2013-03-15 13:38:00,
2013-03-15 09:43:00,29.8,24.7,30.02,WNW,295,8.0,14.0,81,0.00,,---,0.00,VWS V13.01,2013-03-15 13:43:00,
2013-03-15 09:48:00,29.9,24.5,30.02,West,270,6.0,14.0,80,0.00,,---,0.00,VWS V13.01,2013-03-15 13:48:00,
2013-03-15 09:54:00,30.1,24.7,30.01,West,272,7.0,14.0,80,0.00,,---,0.00,VWS V13.01,2013-03-15 13:54:00,
2013-03-15 09:59:00,30.2,24.8,30.01,WNW,291,8.0,14.0,80,0.00,,---,0.00,VWS V13.01,2013-03-15 13:59:00,
2013-03-15 10:04:00,30.4,25.0,30.01,West,267,5.0,15.0,80,0.00,,---,0.00,VWS V13.01,2013-03-15 14:04:00,
2013-03-15 10:10:00,30.6,25.2,30.01,WSW,248,6.0,15.0,80,0.00,,---,0.00,VWS V13.01,2013-03-15 14:10:00,
2013-03-15 10:15:00,30.7,25.3,30.01,West,275,10.0,15.0,80,0.00,,---,0.00,VWS V13.01,2013-03-15 14:15:00,
2013-03-15 10:20:00,31.0,25.6,30.01,West,265,8.0,15.0,80,0.00,,---,0.00,VWS V13.01,2013-03-15 14:20:00,
2013-03-15 10:25:00,31.2,25.8,30.00,West,271,10.0,15.0,80,0.00,,---,0.00,VWS V13.01,2013-03-15 14:25:00,
2013-03-15 10:31:00,31.2,26.1,30.00,WSW,257,9.0,13.0,81,0.00,,---,0.00,VWS V13.01,2013-03-15 14:31:00,
2013-03-15 10:37:00,31.3,26.5,30.00,WNW,283,11.0,13.0,82,0.00,,---,0.00,VWS V13.01,2013-03-15 14:37:00,
2013-03-15 10:42:00,31.2,26.6,30.00,WSW,252,11.0,15.0,83,0.00,,---,0.00,VWS V13.01,2013-03-15 14:42:00,
2013-03-15 10:47:00,31.3,26.8,30.00,WSW,258,9.0,15.0,83,0.00,,---,0.00,VWS V13.01,2013-03-15 14:47:00,
2013-03-15 10:52:00,31.4,26.8,29.99,West,264,10.0,15.0,83,0.00,,---,0.00,VWS V13.01,2013-03-15 14:52:00,
2013-03-15 10:57:00,31.6,26.8,29.99,WSW,250,10.0,15.0,82,0.00,,---,0.00,VWS V13.01,2013-03-15 14:57:00,
2013-03-15 11:02:00,31.9,27.3,29.99,West,260,7.0,11.0,83,0.00,,---,0.00,VWS V13.01,2013-03-15 15:02:00,
2013-03-15 11:08:00,32.0,27.1,29.98,WSW,244,9.0,16.0,82,0.00,,---,0.00,VWS V13.01,2013-03-15 15:08:00,
2013-03-15 11:13:00,32.1,27.5,29.99,WSW,245,8.0,19.0,83,0.00,,---,0.00,VWS V13.01,2013-03-15 15:13:00,
2013-03-15 11:18:00,32.1,27.8,29.98,WSW,253,9.0,19.0,84,0.00,,---,0.00,VWS V13.01,2013-03-15 15:18:00,
2013-03-15 11:23:00,32.1,28.1,29.98,WNW,290,9.0,19.0,85,0.00,,---,0.00,VWS V13.01,2013-03-15 15:23:00,
2013-03-15 11:29:00,32.0,28.3,29.98,West,263,10.0,19.0,86,0.00,,---,0.00,VWS V13.01,2013-03-15 15:29:00,
2013-03-15 11:34:00,31.9,28.5,29.98,West,264,11.0,13.0,87,0.00,,---,0.00,VWS V13.01,2013-03-15 15:34:00,
2013-03-15 11:39:00,31.7,28.6,29.98,West,275,13.0,14.0,88,0.00,,---,0.00,VWS V13.01,2013-03-15 15:39:00,
2013-03-15 11:44:00,31.6,28.7,29.98,West,264,7.0,14.0,89,0.00,,---,0.00,VWS V13.01,2013-03-15 15:44:00,
2013-03-15 11:50:00,31.5,28.9,29.98,WSW,257,10.0,15.0,90,0.00,,---,0.00,VWS V13.01,2013-03-15 15:50:00,
2013-03-15 11:55:00,31.4,29.1,29.98,West,271,11.0,16.0,91,0.00,,---,0.00,VWS V13.01,2013-03-15 15:55:00,
2013-03-15 12:00:00,31.4,29.1,29.98,West,272,8.0,16.0,91,0.00,,---,0.00,VWS V13.01,2013-03-15 16:00:00,
2013-03-15 12:05:00,31.5,29.2,29.97,West,281,9.0,12.0,91,0.00,,---,0.00,VWS V13.01,2013-03-15 16:05:00,
2013-03-15 12:10:00,31.6,29.3,29.98,West,263,6.0,12.0,91,0.00,,---,0.00,VWS V13.01,2013-03-15 16:10:00,
2013-03-15 12:16:00,31.6,29.3,29.97,West,276,8.0,12.0,91,0.00,,---,0.00,VWS V13.01,2013-03-15 16:16:00,
2013-03-15 12:21:00,31.6,29.3,29.98,West,275,7.0,12.0,91,0.00,,---,0.00,VWS V13.01,2013-03-15 16:21:00,
2013-03-15 12:27:00,31.8,29.5,29.97,WNW,286,6.0,12.0,91,0.00,,---,0.00,VWS V13.01,2013-03-15 16:27:00,
2013-03-15 12:32:00,31.8,29.5,29.97,WNW,286,7.0,7.0,91,0.00,,---,0.00,VWS V13.01,2013-03-15 16:32:00,
2013-03-15 12:37:00,31.9,29.6,29.97,WNW,288,5.0,9.0,91,0.00,,---,0.00,VWS V13.01,2013-03-15 16:37:00,
2013-03-15 12:42:00,32.0,29.7,29.97,West,269,11.0,11.0,91,0.00,,---,0.00,VWS V13.01,2013-03-15 16:42:00,
2013-03-15 12:47:00,32.0,29.7,29.98,WNW,294,5.0,11.0,91,0.00,,---,0.00,VWS V13.01,2013-03-15 16:47:00,
2013-03-15 12:53:00,32.0,29.7,29.98,WNW,287,5.0,11.0,91,0.00,,---,0.00,VWS V13.01,2013-03-15 16:53:00,
2013-03-15 12:58:00,31.9,29.8,29.97,West,281,8.0,11.0,92,0.00,,---,0.00,VWS V13.01,2013-03-15 16:58:00,
2013-03-15 13:03:00,31.9,30.1,29.97,West,279,6.0,11.0,93,0.00,,---,0.00,VWS V13.01,2013-03-15 17:03:00,
2013-03-15 13:08:00,31.9,30.1,29.97,WNW,287,9.0,12.0,93,0.00,,---,0.00,VWS V13.01,2013-03-15 17:08:00,
2013-03-15 13:13:00,31.9,30.1,29.97,West,269,6.0,12.0,93,0.00,,---,0.00,VWS V13.01,2013-03-15 17:13:00,
2013-03-15 13:18:00,32.1,30.3,29.97,West,264,10.0,12.0,93,0.01,,---,0.01,VWS V13.01,2013-03-15 17:18:00,
2013-03-15 13:23:00,32.1,30.3,29.97,West,271,9.0,12.0,93,0.01,,---,0.01,VWS V13.01,2013-03-15 17:23:00,
2013-03-15 13:29:00,32.1,30.3,29.96,West,264,9.0,16.0,93,0.01,,---,0.01,VWS V13.01,2013-03-15 17:29:00,
2013-03-15 13:34:00,32.0,30.2,29.96,WNW,286,8.0,19.0,93,0.01,,---,0.01,VWS V13.01,2013-03-15 17:34:00,
2013-03-15 13:39:00,32.1,30.3,29.96,West,271,8.0,19.0,93,0.01,,---,0.01,VWS V13.01,2013-03-15 17:39:00,
2013-03-15 13:44:00,32.0,30.2,29.96,West,274,8.0,19.0,93,0.01,,---,0.01,VWS V13.01,2013-03-15 17:44:00,
2013-03-15 13:50:00,32.0,30.2,29.95,West,280,7.0,19.0,93,0.01,,---,0.01,VWS V13.01,2013-03-15 17:50:00,
2013-03-15 13:55:00,32.0,30.2,29.96,West,279,9.0,19.0,93,0.01,,---,0.01,VWS V13.01,2013-03-15 17:55:00,
2013-03-15 14:00:00,32.1,30.3,29.95,NW,304,5.0,19.0,93,0.02,,---,0.02,VWS V13.01,2013-03-15 18:00:00,
2013-03-15 14:05:00,32.1,30.3,29.95,West,279,7.0,9.0,93,0.02,,---,0.02,VWS V13.01,2013-03-15 18:05:00,
2013-03-15 14:10:00,32.1,30.3,29.95,West,271,8.0,10.0,93,0.02,,---,0.02,VWS V13.01,2013-03-15 18:10:00,
2013-03-15 14:16:00,32.2,30.7,29.95,West,275,6.0,10.0,94,0.02,,---,0.02,VWS V13.01,2013-03-15 18:16:00,
2013-03-15 14:21:00,32.3,30.8,29.95,WNW,284,7.0,10.0,94,0.02,,---,0.02,VWS V13.01,2013-03-15 18:21:00,
2013-03-15 14:26:00,32.3,30.8,29.94,West,272,6.0,10.0,94,0.03,,---,0.03,VWS V13.01,2013-03-15 18:26:00,
2013-03-15 14:32:00,32.2,30.4,29.94,WNW,296,9.0,10.0,93,0.02,,---,0.03,VWS V13.01,2013-03-15 18:32:00,
2013-03-15 14:37:00,32.2,30.4,29.94,WNW,283,5.0,10.0,93,0.02,,---,0.03,VWS V13.01,2013-03-15 18:37:00,
2013-03-15 14:42:00,32.2,30.4,29.94,West,261,7.0,11.0,93,0.02,,---,0.03,VWS V13.01,2013-03-15 18:42:00,
2013-03-15 14:48:00,32.3,30.8,29.94,West,261,11.0,11.0,94,0.02,,---,0.03,VWS V13.01,2013-03-15 18:48:00,
2013-03-15 14:53:00,32.4,30.9,29.94,West,273,8.0,11.0,94,0.02,,---,0.03,VWS V13.01,2013-03-15 18:53:00,
2013-03-15 14:59:00,32.5,31.0,29.93,WNW,286,6.0,11.0,94,0.02,,---,0.03,VWS V13.01,2013-03-15 18:59:00,
2013-03-15 15:04:00,32.7,31.2,29.93,West,279,5.0,8.0,94,0.01,,---,0.03,VWS V13.01,2013-03-15 19:04:00,
2013-03-15 15:09:00,32.9,31.1,29.93,West,265,9.0,18.0,93,0.01,,---,0.03,VWS V13.01,2013-03-15 19:09:00,
2013-03-15 15:15:00,33.1,31.0,29.93,WNW,282,9.0,18.0,92,0.01,,---,0.03,VWS V13.01,2013-03-15 19:15:00,
2013-03-15 15:20:00,33.2,31.1,29.93,WNW,297,13.0,18.0,92,0.01,,---,0.03,VWS V13.01,2013-03-15 19:20:00,
2013-03-15 15:25:00,33.2,30.9,29.93,West,275,9.0,18.0,91,0.01,,---,0.03,VWS V13.01,2013-03-15 19:25:00,
2013-03-15 15:30:00,33.2,31.1,29.93,West,259,8.0,18.0,92,0.01,,---,0.03,VWS V13.01,2013-03-15 19:30:00,
2013-03-15 15:35:00,33.2,31.1,29.93,West,281,9.0,15.0,92,0.00,,---,0.03,VWS V13.01,2013-03-15 19:35:00,
2013-03-15 15:40:00,33.1,30.8,29.93,West,279,13.0,21.0,91,0.00,,---,0.03,VWS V13.01,2013-03-15 19:40:00,
2013-03-15 15:45:00,33.1,31.0,29.93,West,267,10.0,21.0,92,0.00,,---,0.03,VWS V13.01,2013-03-15 19:45:00,
2013-03-15 15:51:00,33.0,30.7,29.93,WNW,282,11.0,21.0,91,0.00,,---,0.03,VWS V13.01,2013-03-15 19:51:00,
2013-03-15 15:56:00,33.0,30.7,29.93,WNW,290,12.0,21.0,91,0.00,,---,0.03,VWS V13.01,2013-03-15 19:56:00,
2013-03-15 16:01:00,33.2,30.9,29.93,WNW,286,12.0,15.0,91,0.00,,---,0.03,VWS V13.01,2013-03-15 20:01:00,
2013-03-15 16:06:00,33.0,30.7,29.93,West,274,9.0,15.0,91,0.00,,---,0.03,VWS V13.01,2013-03-15 20:06:00,
2013-03-15 16:11:00,33.0,30.7,29.93,WNW,291,8.0,15.0,91,0.00,,---,0.03,VWS V13.01,2013-03-15 20:11:00,
2013-03-15 16:16:00,33.0,30.9,29.93,WNW,291,9.0,15.0,92,0.00,,---,0.03,VWS V13.01,2013-03-15 20:16:00,
2013-03-15 16:22:00,33.0,30.7,29.92,West,263,10.0,15.0,91,0.00,,---,0.03,VWS V13.01,2013-03-15 20:22:00,
2013-03-15 16:27:00,32.9,30.6,29.92,West,281,11.0,15.0,91,0.00,,---,0.03,VWS V13.01,2013-03-15 20:27:00,
2013-03-15 16:32:00,32.7,30.6,29.92,WNW,293,7.0,12.0,92,0.00,,---,0.03,VWS V13.01,2013-03-15 20:32:00,
2013-03-15 16:37:00,32.6,30.5,29.92,West,275,11.0,12.0,92,0.00,,---,0.03,VWS V13.01,2013-03-15 20:37:00,
2013-03-15 16:42:00,32.6,30.5,29.92,West,268,6.0,12.0,92,0.00,,---,0.03,VWS V13.01,2013-03-15 20:42:00,
2013-03-15 16:47:00,32.5,30.4,29.93,WNW,300,9.0,13.0,92,0.00,,---,0.03,VWS V13.01,2013-03-15 20:47:00,
2013-03-15 16:52:00,32.5,30.4,29.93,West,281,11.0,13.0,92,0.00,,---,0.03,VWS V13.01,2013-03-15 20:52:00,
2013-03-15 16:57:00,32.4,30.1,29.93,West,279,6.0,13.0,91,0.00,,---,0.03,VWS V13.01,2013-03-15 20:57:00,
2013-03-15 17:03:00,32.4,30.3,29.92,WNW,292,7.0,11.0,92,0.00,,---,0.03,VWS V13.01,2013-03-15 21:03:00,
2013-03-15 17:08:00,32.3,30.0,29.93,NW,313,10.0,12.0,91,0.00,,---,0.03,VWS V13.01,2013-03-15 21:08:00,
2013-03-15 17:13:00,32.2,30.1,29.93,NW,314,6.0,12.0,92,0.00,,---,0.03,VWS V13.01,2013-03-15 21:13:00,
2013-03-15 17:18:00,32.1,30.0,29.93,NW,304,4.0,12.0,92,0.00,,---,0.03,VWS V13.01,2013-03-15 21:18:00,
2013-03-15 17:24:00,32.0,29.9,29.94,NW,305,2.0,12.0,92,0.00,,---,0.03,VWS V13.01,2013-03-15 21:24:00,
2013-03-15 17:29:00,31.9,30.1,29.93,NW,304,0.0,12.0,93,0.00,,---,0.03,VWS V13.01,2013-03-15 21:29:00,
2013-03-15 17:34:00,31.8,30.0,29.94,NW,305,3.0,6.0,93,0.00,,---,0.03,VWS V13.01,2013-03-15 21:34:00,
2013-03-15 17:39:00,31.8,30.0,29.94,NW,305,1.0,6.0,93,0.00,,---,0.03,VWS V13.01,2013-03-15 21:39:00,
2013-03-15 17:44:00,31.7,29.9,29.94,NW,305,1.0,6.0,93,0.00,,---,0.03,VWS V13.01,2013-03-15 21:44:00,
2013-03-15 17:50:00,31.7,29.9,29.94,NW,305,4.0,6.0,93,0.00,,---,0.03,VWS V13.01,2013-03-15 21:50:00,
2013-03-15 17:55:00,31.7,29.9,29.94,West,277,0.0,7.0,93,0.00,,---,0.03,VWS V13.01,2013-03-15 21:55:00,
2013-03-15 18:00:00,31.6,30.1,29.94,West,278,1.0,7.0,94,0.00,,---,0.03,VWS V13.01,2013-03-15 22:00:00,
2013-03-15 18:05:00,31.6,30.1,29.94,West,278,2.0,5.0,94,0.00,,---,0.03,VWS V13.01,2013-03-15 22:05:00,
2013-03-15 18:10:00,31.6,30.1,29.94,West,277,2.0,5.0,94,0.00,,---,0.03,VWS V13.01,2013-03-15 22:10:00,
2013-03-15 18:16:00,31.6,30.1,29.94,West,278,5.0,6.0,94,0.00,,---,0.03,VWS V13.01,2013-03-15 22:16:00,
2013-03-15 18:21:00,31.6,30.1,29.94,West,280,5.0,8.0,94,0.00,,---,0.03,VWS V13.01,2013-03-15 22:21:00,
2013-03-15 18:26:00,31.6,30.1,29.94,West,280,2.0,8.0,94,0.00,,---,0.03,VWS V13.01,2013-03-15 22:26:00,
2013-03-15 18:32:00,31.6,30.1,29.95,West,280,2.0,2.0,94,0.00,,---,0.03,VWS V13.01,2013-03-15 22:32:00,
2013-03-15 18:37:00,31.6,30.1,29.95,West,280,0.0,2.0,94,0.00,,---,0.03,VWS V13.01,2013-03-15 22:37:00,
2013-03-15 18:42:00,31.5,30.0,29.95,West,280,4.0,4.0,94,0.00,,---,0.03,VWS V13.01,2013-03-15 22:42:00,
2013-03-15 18:47:00,31.5,30.0,29.95,West,280,0.0,5.0,94,0.00,,---,0.03,VWS V13.01,2013-03-15 22:47:00,
2013-03-15 18:52:00,31.5,30.0,29.94,West,280,0.0,5.0,94,0.01,,---,0.04,VWS V13.01,2013-03-15 22:52:00,
2013-03-15 18:57:00,31.5,30.0,29.94,West,280,2.0,5.0,94,0.01,,---,0.04,VWS V13.01,2013-03-15 22:57:00,
2013-03-15 19:03:00,31.4,29.9,29.94,WNW,292,0.0,4.0,94,0.01,,---,0.04,VWS V13.01,2013-03-15 23:03:00,
2013-03-15 19:08:00,31.4,29.9,29.95,WNW,291,2.0,6.0,94,0.01,,---,0.04,VWS V13.01,2013-03-15 23:08:00,
2013-03-15 19:13:00,31.4,29.9,29.95,WNW,300,4.0,6.0,94,0.01,,---,0.04,VWS V13.01,2013-03-15 23:13:00,
2013-03-15 19:18:00,31.5,30.0,29.95,WNW,300,3.0,6.0,94,0.01,,---,0.04,VWS V13.01,2013-03-15 23:18:00,
2013-03-15 19:23:00,31.4,29.9,29.96,WNW,300,4.0,6.0,94,0.01,,---,0.04,VWS V13.01,2013-03-15 23:23:00,
2013-03-15 19:28:00,31.4,29.9,29.96,WNW,296,4.0,6.0,94,0.01,,---,0.04,VWS V13.01,2013-03-15 23:28:00,
2013-03-15 19:34:00,31.4,29.9,29.96,WNW,296,1.0,3.0,94,0.01,,---,0.04,VWS V13.01,2013-03-15 23:34:00,
2013-03-15 19:39:00,31.4,29.9,29.96,WNW,296,0.0,4.0,94,0.01,,---,0.04,VWS V13.01,2013-03-15 23:39:00,
2013-03-15 19:44:00,31.4,29.9,29.97,WNW,295,0.0,6.0,94,0.01,,---,0.04,VWS V13.01,2013-03-15 23:44:00,
2013-03-15 19:49:00,31.4,29.9,29.97,WNW,296,2.0,6.0,94,0.01,,---,0.04,VWS V13.01,2013-03-15 23:49:00,
2013-03-15 19:54:00,31.4,29.9,29.97,WNW,296,4.0,6.0,94,0.01,,---,0.04,VWS V13.01,2013-03-15 23:54:00,
2013-03-15 20:00:00,31.3,29.8,29.97,WNW,296,0.0,6.0,94,0.01,,---,0.04,VWS V13.01,2013-03-16 00:00:00,
2013-03-15 20:05:00,31.3,29.8,29.97,WNW,296,0.0,4.0,94,0.00,,---,0.04,VWS V13.01,2013-03-16 00:05:00,
2013-03-15 20:10:00,31.2,29.7,29.97,WNW,295,1.0,4.0,94,0.00,,---,0.04,VWS V13.01,2013-03-16 00:10:00,
2013-03-15 20:15:00,31.2,29.7,29.97,WNW,295,0.0,4.0,94,0.00,,---,0.04,VWS V13.01,2013-03-16 00:15:00,
2013-03-15 20:20:00,31.2,29.7,29.97,WNW,296,0.0,5.0,94,0.00,,---,0.04,VWS V13.01,2013-03-16 00:20:00,
2013-03-15 20:25:00,31.1,29.6,29.97,WNW,295,0.0,5.0,94,0.00,,---,0.04,VWS V13.01,2013-03-16 00:25:00,
2013-03-15 20:32:00,31.1,29.6,29.98,WNW,295,2.0,5.0,94,0.00,,---,0.04,VWS V13.01,2013-03-16 00:32:00,
2013-03-15 20:37:00,31.1,29.6,29.97,WNW,295,4.0,6.0,94,0.00,,---,0.04,VWS V13.01,2013-03-16 00:37:00,
2013-03-15 20:42:00,31.2,29.7,29.97,WNW,295,2.0,6.0,94,0.00,,---,0.04,VWS V13.01,2013-03-16 00:42:00,
2013-03-15 20:47:00,31.2,29.7,29.97,WNW,295,0.0,6.0,94,0.00,,---,0.04,VWS V13.01,2013-03-16 00:47:00,
2013-03-15 20:53:00,31.2,29.7,29.97,WNW,295,0.0,6.0,94,0.00,,---,0.04,VWS V13.01,2013-03-16 00:53:00,
2013-03-15 20:58:00,31.3,29.8,29.97,WNW,292,4.0,6.0,94,0.00,,---,0.04,VWS V13.01,2013-03-16 00:58:00,
2013-03-15 21:03:00,31.3,29.5,29.97,WNW,288,5.0,6.0,93,0.00,,---,0.04,VWS V13.01,2013-03-16 01:03:00,
2013-03-15 21:08:00,31.3,29.5,29.97,WNW,288,1.0,6.0,93,0.00,,---,0.04,VWS V13.01,2013-03-16 01:08:00,
2013-03-15 21:13:00,31.3,29.5,29.97,WNW,288,4.0,6.0,93,0.00,,---,0.04,VWS V13.01,2013-03-16 01:13:00,
2013-03-15 21:18:00,31.3,29.5,29.98,WNW,288,4.0,6.0,93,0.00,,---,0.04,VWS V13.01,2013-03-16 01:18:00,
2013-03-15 21:24:00,31.2,29.4,29.98,WNW,288,6.0,6.0,93,0.00,,---,0.04,VWS V13.01,2013-03-16 01:24:00,
2013-03-15 21:29:00,31.2,29.7,29.98,WNW,286,4.0,7.0,94,0.00,,---,0.04,VWS V13.01,2013-03-16 01:29:00,
2013-03-15 21:34:00,31.2,29.7,29.97,WNW,286,2.0,5.0,94,0.00,,---,0.04,VWS V13.01,2013-03-16 01:34:00,
2013-03-15 21:39:00,31.1,29.6,29.97,WNW,286,5.0,5.0,94,0.00,,---,0.04,VWS V13.01,2013-03-16 01:39:00,
2013-03-15 21:44:00,31.2,29.7,29.97,WNW,286,0.0,5.0,94,0.00,,---,0.04,VWS V13.01,2013-03-16 01:44:00,
2013-03-15 21:50:00,31.1,29.6,29.97,WNW,286,0.0,5.0,94,0.00,,---,0.04,VWS V13.01,2013-03-16 01:50:00,
2013-03-15 21:55:00,31.1,29.6,29.97,WNW,286,0.0,5.0,94,0.00,,---,0.04,VWS V13.01,2013-03-16 01:55:00,
2013-03-15 22:00:00,31.1,29.6,29.97,WNW,286,0.0,0.0,94,0.00,,---,0.04,VWS V13.01,2013-03-16 02:00:00,
2013-03-15 22:05:00,31.1,29.6,29.97,WNW,286,0.0,0.0,94,0.00,,---,0.04,VWS V13.01,2013-03-16 02:05:00,
2013-03-15 22:11:00,31.0,29.5,29.97,WNW,286,0.0,0.0,94,0.00,,---,0.04,VWS V13.01,2013-03-16 02:11:00,
2013-03-15 22:16:00,31.0,29.5,29.97,WNW,286,0.0,0.0,94,0.00,,---,0.04,VWS V13.01,2013-03-16 02:16:00,
2013-03-15 22:21:00,30.9,29.4,29.97,WNW,286,0.0,0.0,94,0.00,,---,0.04,VWS V13.01,2013-03-16 02:21:00,
2013-03-15 22:26:00,30.8,29.3,29.96,WNW,286,0.0,0.0,94,0.00,,---,0.04,VWS V13.01,2013-03-16 02:26:00,
2013-03-15 22:31:00,30.8,29.3,29.97,WNW,286,0.0,0.0,94,0.00,,---,0.04,VWS V13.01,2013-03-16 02:31:00,
2013-03-15 22:37:00,30.8,29.3,29.97,WNW,286,0.0,0.0,94,0.00,,---,0.04,VWS V13.01,2013-03-16 02:37:00,
2013-03-15 22:42:00,30.7,29.2,29.97,WNW,286,0.0,0.0,94,0.00,,---,0.04,VWS V13.01,2013-03-16 02:42:00,
2013-03-15 22:47:00,30.7,29.2,29.97,WNW,286,0.0,0.0,94,0.00,,---,0.04,VWS V13.01,2013-03-16 02:47:00,
2013-03-15 22:52:00,30.6,29.1,29.97,WNW,286,0.0,0.0,94,0.00,,---,0.04,VWS V13.01,2013-03-16 02:52:00,
2013-03-15 22:57:00,30.6,29.1,29.97,WNW,286,0.0,0.0,94,0.00,,---,0.04,VWS V13.01,2013-03-16 02:57:00,
2013-03-15 23:02:00,30.6,29.1,29.97,WNW,286,0.0,0.0,94,0.00,,---,0.04,VWS V13.01,2013-03-16 03:02:00,
2013-03-15 23:08:00,30.6,29.1,29.97,WNW,286,0.0,0.0,94,0.00,,---,0.04,VWS V13.01,2013-03-16 03:08:00,
2013-03-15 23:13:00,30.6,29.3,29.97,WNW,286,0.0,0.0,95,0.00,,---,0.04,VWS V13.01,2013-03-16 03:13:00,
2013-03-15 23:18:00,30.6,29.3,29.96,WNW,286,0.0,0.0,95,0.00,,---,0.04,VWS V13.01,2013-03-16 03:18:00,
2013-03-15 23:23:00,30.5,29.2,29.96,WNW,286,0.0,0.0,95,0.00,,---,0.04,VWS V13.01,2013-03-16 03:23:00,
2013-03-15 23:28:00,30.5,29.2,29.96,WNW,286,0.0,1.0,95,0.00,,---,0.04,VWS V13.01,2013-03-16 03:28:00,
2013-03-15 23:34:00,30.5,29.2,29.96,WNW,286,0.0,0.0,95,0.00,,---,0.04,VWS V13.01,2013-03-16 03:34:00,
2013-03-15 23:39:00,30.5,29.2,29.96,WNW,286,0.0,0.0,95,0.00,,---,0.04,VWS V13.01,2013-03-16 03:39:00,
2013-03-15 23:44:00,30.3,29.0,29.96,WNW,286,0.0,0.0,95,0.00,,---,0.04,VWS V13.01,2013-03-16 03:44:00,
2013-03-15 23:49:00,30.3,29.0,29.96,WNW,286,0.0,0.0,95,0.00,,---,0.04,VWS V13.01,2013-03-16 03:49:00,
2013-03-15 23:54:00,30.3,29.0,29.95,WNW,286,0.0,0.0,95,0.00,,---,0.04,VWS V13.01,2013-03-16 03:54:00,